METAR = LIPX 191020Z VRB02KT 7000 FEW040 12/07 Q1021

STAZIONE.................. LIPX
ORA METAR................. Wed Feb 19, 11:20 CET
ORA ATTUALE............... Wed Feb 19, 11:25 CET
TEMPO TRASCORSO........... 5 minuti fa
VENTO..................... Variabile a 2 mph
VISIBILITA'............... 11 miglia
NUVOLE.................... poco nuvoloso
TEMPERATURA............... 54°F (12°C)
PUNTO RUGIADA............. 45°F (7°C)
UMIDITA'.................. 72%
PRESSIONE................. 1021 hPa (30.15 in Hg)


Informazioni per la stazione LIPX